sensor_id;sensor_type;location;lat;lon;timestamp;pressure;altitude;pressure_sealevel;temperature;humidity
67457;BME280;54319;52.038;4.640;2024-02-21T00:00:35;102180.41;;;8.69;100.00
67457;BME280;54319;52.038;4.640;2024-02-21T00:03:03;102197.25;;;8.73;100.00
67457;BME280;54319;52.038;4.640;2024-02-21T00:05:30;102182.13;;;8.79;100.00
67457;BME280;54319;52.038;4.640;2024-02-21T00:07:59;102174.28;;;8.76;100.00
67457;BME280;54319;52.038;4.640;2024-02-21T00:10:26;102160.53;;;8.77;100.00
67457;BME280;54319;52.038;4.640;2024-02-21T00:12:52;102121.53;;;8.52;100.00
67457;BME280;54319;52.038;4.640;2024-02-21T00:15:19;102160.50;;;8.69;100.00
67457;BME280;54319;52.038;4.640;2024-02-21T00:17:46;102162.53;;;8.67;100.00
67457;BME280;54319;52.038;4.640;2024-02-21T00:20:14;102175.66;;;8.80;100.00
67457;BME280;54319;52.038;4.640;2024-02-21T00:22:40;102173.13;;;8.78;100.00
67457;BME280;54319;52.038;4.640;2024-02-21T00:25:11;102159.66;;;8.77;100.00
67457;BME280;54319;52.038;4.640;2024-02-21T00:27:38;102167.84;;;8.77;100.00
67457;BME280;54319;52.038;4.640;2024-02-21T00:30:06;102161.03;;;8.73;100.00
67457;BME280;54319;52.038;4.640;2024-02-21T00:32:32;102178.22;;;8.81;100.00
67457;BME280;54319;52.038;4.640;2024-02-21T00:35:00;102178.22;;;8.81;100.00
67457;BME280;54319;52.038;4.640;2024-02-21T00:37:27;102185.19;;;8.84;100.00
67457;BME280;54319;52.038;4.640;2024-02-21T00:39:54;102173.63;;;8.82;100.00
67457;BME280;54319;52.038;4.640;2024-02-21T00:42:23;102176.34;;;8.82;100.00
67457;BME280;54319;52.038;4.640;2024-02-21T00:44:50;102164.63;;;8.81;100.00
67457;BME280;54319;52.038;4.640;2024-02-21T00:47:16;102168.19;;;8.82;100.00
67457;BME280;54319;52.038;4.640;2024-02-21T00:49:45;102176.00;;;8.85;100.00
67457;BME280;54319;52.038;4.640;2024-02-21T00:52:12;102168.84;;;8.76;100.00
67457;BME280;54319;52.038;4.640;2024-02-21T00:54:39;102175.50;;;8.81;100.00
67457;BME280;54319;52.038;4.640;2024-02-21T00:57:05;102168.50;;;8.87;100.00
67457;BME280;54319;52.038;4.640;2024-02-21T00:59:33;102145.22;;;8.76;100.00
67457;BME280;54319;52.038;4.640;2024-02-21T01:02:00;102163.06;;;8.87;100.00
67457;BME280;54319;52.038;4.640;2024-02-21T01:04:26;102157.63;;;8.87;100.00
67457;BME280;54319;52.038;4.640;2024-02-21T01:06:53;102163.06;;;8.87;100.00
67457;BME280;54319;52.038;4.640;2024-02-21T01:09:20;102153.06;;;8.88;100.00
67457;BME280;54319;52.038;4.640;2024-02-21T01:11:46;102146.75;;;8.87;100.00
67457;BME280;54319;52.038;4.640;2024-02-21T01:14:13;102151.00;;;8.90;100.00
67457;BME280;54319;52.038;4.640;2024-02-21T01:16:41;102113.41;;;8.77;100.00
67457;BME280;54319;52.038;4.640;2024-02-21T01:19:08;102141.81;;;8.91;100.00
67457;BME280;54319;52.038;4.640;2024-02-21T01:21:35;102132.13;;;8.88;100.00
67457;BME280;54319;52.038;4.640;2024-02-21T01:24:02;102131.28;;;8.88;100.00
67457;BME280;54319;52.038;4.640;2024-02-21T01:26:29;102131.63;;;8.85;100.00
67457;BME280;54319;52.038;4.640;2024-02-21T01:28:55;102121.56;;;8.85;100.00
67457;BME280;54319;52.038;4.640;2024-02-21T01:31:22;102112.56;;;8.85;100.00
67457;BME280;54319;52.038;4.640;2024-02-21T01:33:50;102117.34;;;8.82;100.00
67457;BME280;54319;52.038;4.640;2024-02-21T01:36:17;102114.97;;;8.88;100.00
67457;BME280;54319;52.038;4.640;2024-02-21T01:38:43;102106.13;;;8.86;100.00
67457;BME280;54319;52.038;4.640;2024-02-21T01:41:10;102112.56;;;8.85;100.00
67457;BME280;54319;52.038;4.640;2024-02-21T01:43:37;102100.81;;;8.84;100.00
67457;BME280;54319;52.038;4.640;2024-02-21T01:46:04;102105.94;;;8.79;100.00
67457;BME280;54319;52.038;4.640;2024-02-21T01:48:31;102115.63;;;8.81;100.00
67457;BME280;54319;52.038;4.640;2024-02-21T01:50:59;102112.41;;;8.78;100.00
67457;BME280;54319;52.038;4.640;2024-02-21T01:53:30;102110.69;;;8.77;100.00
67457;BME280;54319;52.038;4.640;2024-02-21T01:55:56;102097.09;;;8.68;100.00
67457;BME280;54319;52.038;4.640;2024-02-21T01:58:23;102098.44;;;8.73;100.00
67457;BME280;54319;52.038;4.640;2024-02-21T02:00:51;102096.25;;;8.76;100.00
67457;BME280;54319;52.038;4.640;2024-02-21T02:03:17;102091.31;;;8.80;100.00
67457;BME280;54319;52.038;4.640;2024-02-21T02:05:45;102083.00;;;8.81;100.00
67457;BME280;54319;52.038;4.640;2024-02-21T02:08:13;102083.31;;;8.78;100.00
67457;BME280;54319;52.038;4.640;2024-02-21T02:10:40;102084.69;;;8.82;100.00
67457;BME280;54319;52.038;4.640;2024-02-21T02:13:07;102060.50;;;8.71;100.00
67457;BME280;54319;52.038;4.640;2024-02-21T02:15:40;102078.22;;;8.83;100.00
67457;BME280;54319;52.038;4.640;2024-02-21T02:18:08;102077.19;;;8.85;100.00
67457;BME280;54319;52.038;4.640;2024-02-21T02:20:36;102070.41;;;8.80;100.00
67457;BME280;54319;52.038;4.640;2024-02-21T02:23:07;102063.94;;;8.81;100.00
67457;BME280;54319;52.038;4.640;2024-02-21T02:25:36;102043.34;;;8.71;100.00
67457;BME280;54319;52.038;4.640;2024-02-21T02:28:03;102067.34;;;8.83;100.00
67457;BME280;54319;52.038;4.640;2024-02-21T02:30:32;102069.03;;;8.85;100.00
67457;BME280;54319;52.038;4.640;2024-02-21T02:32:59;102065.44;;;8.84;100.00
67457;BME280;54319;52.038;4.640;2024-02-21T02:35:25;102063.75;;;8.83;100.00
67457;BME280;54319;52.038;4.640;2024-02-21T02:37:52;102066.31;;;8.85;100.00
67457;BME280;54319;52.038;4.640;2024-02-21T02:40:19;102061.56;;;8.78;100.00
67457;BME280;54319;52.038;4.640;2024-02-21T02:42:48;102066.66;;;8.81;100.00
67457;BME280;54319;52.038;4.640;2024-02-21T02:45:15;102069.38;;;8.81;100.00
67457;BME280;54319;52.038;4.640;2024-02-21T02:47:41;102057.81;;;8.79;100.00
67457;BME280;54319;52.038;4.640;2024-02-21T02:50:09;102047.28;;;8.76;100.00
67457;BME280;54319;52.038;4.640;2024-02-21T02:52:35;102041.84;;;8.76;100.00
67457;BME280;54319;52.038;4.640;2024-02-21T02:55:03;102030.94;;;8.76;100.00
67457;BME280;54319;52.038;4.640;2024-02-21T02:57:30;102035.03;;;8.80;100.00
67457;BME280;54319;52.038;4.640;2024-02-21T02:59:58;102035.72;;;8.82;100.00
67457;BME280;54319;52.038;4.640;2024-02-21T03:02:25;102025.16;;;8.79;100.00
67457;BME280;54319;52.038;4.640;2024-02-21T03:04:51;102019.72;;;8.79;100.00
67457;BME280;54319;52.038;4.640;2024-02-21T03:07:18;102014.97;;;8.81;100.00
67457;BME280;54319;52.038;4.640;2024-02-21T03:09:45;102000.34;;;8.74;100.00
67457;BME280;54319;52.038;4.640;2024-02-21T03:12:14;101997.94;;;8.71;100.00
67457;BME280;54319;52.038;4.640;2024-02-21T03:14:49;102001.69;;;8.78;100.00
67457;BME280;54319;52.038;4.640;2024-02-21T03:17:17;102005.44;;;8.77;100.00
67457;BME280;54319;52.038;4.640;2024-02-21T03:19:43;102001.34;;;8.81;100.00
67457;BME280;54319;52.038;4.640;2024-02-21T03:22:10;101987.91;;;8.80;100.00
67457;BME280;54319;52.038;4.640;2024-02-21T03:24:37;101984.34;;;8.79;100.00
67457;BME280;54319;52.038;4.640;2024-02-21T03:27:04;101981.63;;;8.79;100.00
67457;BME280;54319;52.038;4.640;2024-02-21T03:29:30;101969.41;;;8.75;100.00
67457;BME280;54319;52.038;4.640;2024-02-21T03:31:57;101975.84;;;8.82;100.00
67457;BME280;54319;52.038;4.640;2024-02-21T03:34:25;101980.63;;;8.80;100.00
67457;BME280;54319;52.038;4.640;2024-02-21T03:36:52;101973.63;;;8.78;100.00
67457;BME280;54319;52.038;4.640;2024-02-21T03:39:18;101971.59;;;8.80;100.00
67457;BME280;54319;52.038;4.640;2024-02-21T03:41:46;101972.25;;;8.82;100.00
67457;BME280;54319;52.038;4.640;2024-02-21T03:44:13;101978.72;;;8.81;100.00
67457;BME280;54319;52.038;4.640;2024-02-21T03:46:39;101976.19;;;8.79;100.00
67457;BME280;54319;52.038;4.640;2024-02-21T03:49:06;101967.34;;;8.77;100.00
67457;BME280;54319;52.038;4.640;2024-02-21T03:51:34;101966.50;;;8.77;100.00
67457;BME280;54319;52.038;4.640;2024-02-21T03:54:01;101969.41;;;8.75;100.00
67457;BME280;54319;52.038;4.640;2024-02-21T03:56:27;101973.31;;;8.73;100.00
67457;BME280;54319;52.038;4.640;2024-02-21T03:58:54;101952.56;;;8.72;100.00
67457;BME280;54319;52.038;4.640;2024-02-21T04:01:21;101957.31;;;8.69;100.00
67457;BME280;54319;52.038;4.640;2024-02-21T04:03:49;101955.78;;;8.67;100.00
67457;BME280;54319;52.038;4.640;2024-02-21T04:06:18;101952.72;;;8.70;100.00
67457;BME280;54319;52.038;4.640;2024-02-21T04:08:46;101951.38;;;8.66;100.00
67457;BME280;54319;52.038;4.640;2024-02-21T04:11:13;101956.66;;;8.67;100.00
67457;BME280;54319;52.038;4.640;2024-02-21T04:13:39;101965.31;;;8.63;100.00
67457;BME280;54319;52.038;4.640;2024-02-21T04:16:06;101973.66;;;8.61;100.00
67457;BME280;54319;52.038;4.640;2024-02-21T04:18:33;101966.00;;;8.57;100.00
67457;BME280;54319;52.038;4.640;2024-02-21T04:20:59;101964.97;;;8.58;100.00
67457;BME280;54319;52.038;4.640;2024-02-21T04:23:26;101964.31;;;8.56;100.00
67457;BME280;54319;52.038;4.640;2024-02-21T04:25:55;101959.22;;;8.52;100.00
67457;BME280;54319;52.038;4.640;2024-02-21T04:28:22;101958.88;;;8.56;100.00
67457;BME280;54319;52.038;4.640;2024-02-21T04:30:49;101944.06;;;8.50;100.00
67457;BME280;54319;52.038;4.640;2024-02-21T04:33:15;101952.75;;;8.53;100.00
67457;BME280;54319;52.038;4.640;2024-02-21T04:35:42;101893.94;;;8.19;100.00
67457;BME280;54319;52.038;4.640;2024-02-21T04:38:10;101944.94;;;8.50;100.00
67457;BME280;54319;52.038;4.640;2024-02-21T04:40:37;101919.94;;;8.38;100.00
67457;BME280;54319;52.038;4.640;2024-02-21T04:43:05;101927.44;;;8.53;100.00
67457;BME280;54319;52.038;4.640;2024-02-21T04:45:32;101877.28;;;8.22;100.00
67457;BME280;54319;52.038;4.640;2024-02-21T04:47:58;101916.03;;;8.41;100.00
67457;BME280;54319;52.038;4.640;2024-02-21T04:50:28;101929.44;;;8.43;100.00
67457;BME280;54319;52.038;4.640;2024-02-21T04:52:54;101920.78;;;8.47;100.00
67457;BME280;54319;52.038;4.640;2024-02-21T04:55:21;101913.66;;;8.54;100.00
67457;BME280;54319;52.038;4.640;2024-02-21T04:57:48;101916.88;;;8.50;100.00
67457;BME280;54319;52.038;4.640;2024-02-21T05:00:16;101900.75;;;8.40;100.00
67457;BME280;54319;52.038;4.640;2024-02-21T05:02:43;101900.19;;;8.45;100.00
67457;BME280;54319;52.038;4.640;2024-02-21T05:05:10;101890.34;;;8.44;100.00
67457;BME280;54319;52.038;4.640;2024-02-21T05:07:37;101886.94;;;8.42;100.00
67457;BME280;54319;52.038;4.640;2024-02-21T05:10:04;101890.00;;;8.47;100.00
67457;BME280;54319;52.038;4.640;2024-02-21T05:12:31;101869.81;;;8.41;100.00
67457;BME280;54319;52.038;4.640;2024-02-21T05:14:57;101871.31;;;8.44;100.00
67457;BME280;54319;52.038;4.640;2024-02-21T05:17:25;101879.47;;;8.44;100.00
67457;BME280;54319;52.038;4.640;2024-02-21T05:19:52;101877.97;;;8.41;100.00
67457;BME280;54319;52.038;4.640;2024-02-21T05:22:19;101865.38;;;8.32;100.00
67457;BME280;54319;52.038;4.640;2024-02-21T05:24:45;101874.72;;;8.37;100.00
67457;BME280;54319;52.038;4.640;2024-02-21T05:27:12;101856.22;;;8.41;100.00
67457;BME280;54319;52.038;4.640;2024-02-21T05:29:39;101853.50;;;8.41;100.00
67457;BME280;54319;52.038;4.640;2024-02-21T05:32:06;101848.41;;;8.38;100.00
67457;BME280;54319;52.038;4.640;2024-02-21T05:34:34;101850.22;;;8.46;100.00
67457;BME280;54319;52.038;4.640;2024-02-21T05:37:01;101837.53;;;8.38;100.00
67457;BME280;54319;52.038;4.640;2024-02-21T05:39:27;101833.78;;;8.39;100.00
67457;BME280;54319;52.038;4.640;2024-02-21T05:41:54;101830.19;;;8.38;100.00
67457;BME280;54319;52.038;4.640;2024-02-21T05:44:21;101822.72;;;8.40;100.00
67457;BME280;54319;52.038;4.640;2024-02-21T05:46:48;101821.84;;;8.48;100.00
67457;BME280;54319;52.038;4.640;2024-02-21T05:49:16;101824.41;;;8.42;100.00
67457;BME280;54319;52.038;4.640;2024-02-21T05:51:44;101820.84;;;8.41;100.00
67457;BME280;54319;52.038;4.640;2024-02-21T05:54:11;101815.78;;;8.38;100.00
67457;BME280;54319;52.038;4.640;2024-02-21T05:56:37;101815.25;;;8.34;100.00
67457;BME280;54319;52.038;4.640;2024-02-21T05:59:04;101819.88;;;8.34;100.00
67457;BME280;54319;52.038;4.640;2024-02-21T06:01:31;101813.72;;;8.32;100.00
67457;BME280;54319;52.038;4.640;2024-02-21T06:03:58;101814.75;;;8.39;100.00
67457;BME280;54319;52.038;4.640;2024-02-21T06:06:24;101809.00;;;8.34;100.00
67457;BME280;54319;52.038;4.640;2024-02-21T06:08:53;101796.72;;;8.30;100.00
67457;BME280;54319;52.038;4.640;2024-02-21T06:11:19;101793.16;;;8.37;100.00
67457;BME280;54319;52.038;4.640;2024-02-21T06:13:46;101768.25;;;8.09;100.00
67457;BME280;54319;52.038;4.640;2024-02-21T06:16:13;101811.88;;;8.32;100.00
67457;BME280;54319;52.038;4.640;2024-02-21T06:18:40;101809.00;;;8.34;100.00
67457;BME280;54319;52.038;4.640;2024-02-21T06:21:07;101804.72;;;8.31;100.00
67457;BME280;54319;52.038;4.640;2024-02-21T06:23:33;101811.53;;;8.27;100.00
67457;BME280;54319;52.038;4.640;2024-02-21T06:26:02;101814.75;;;8.31;100.00
67457;BME280;54319;52.038;4.640;2024-02-21T06:28:29;101825.63;;;8.31;100.00
67457;BME280;54319;52.038;4.640;2024-02-21T06:30:55;101820.03;;;8.32;100.00
67457;BME280;54319;52.038;4.640;2024-02-21T06:33:22;101818.66;;;8.28;100.00
67457;BME280;54319;52.038;4.640;2024-02-21T06:35:52;101820.38;;;8.29;100.00
67457;BME280;54319;52.038;4.640;2024-02-21T06:38:20;101797.09;;;8.18;100.00
67457;BME280;54319;52.038;4.640;2024-02-21T06:40:48;101812.53;;;8.34;100.00
67457;BME280;54319;52.038;4.640;2024-02-21T06:43:20;101811.34;;;8.29;100.00
67457;BME280;54319;52.038;4.640;2024-02-21T06:45:47;101792.50;;;8.27;100.00
67457;BME280;54319;52.038;4.640;2024-02-21T06:48:16;101795.72;;;8.31;100.00
67457;BME280;54319;52.038;4.640;2024-02-21T06:50:44;101794.69;;;8.32;100.00
67457;BME280;54319;52.038;4.640;2024-02-21T06:53:11;101793.34;;;8.36;100.00
67457;BME280;54319;52.038;4.640;2024-02-21T06:55:38;101785.50;;;8.33;100.00
67457;BME280;54319;52.038;4.640;2024-02-21T06:58:04;101782.78;;;8.33;100.00
67457;BME280;54319;52.038;4.640;2024-02-21T07:00:35;101789.44;;;8.30;100.00
67457;BME280;54319;52.038;4.640;2024-02-21T07:03:01;101786.72;;;8.30;100.00
67457;BME280;54319;52.038;4.640;2024-02-21T07:05:29;101775.00;;;8.30;100.00
67457;BME280;54319;52.038;4.640;2024-02-21T07:07:55;101771.25;;;8.31;100.00
67457;BME280;54319;52.038;4.640;2024-02-21T07:10:22;101777.91;;;8.28;100.00
67457;BME280;54319;52.038;4.640;2024-02-21T07:12:48;101771.44;;;8.29;100.00
67457;BME280;54319;52.038;4.640;2024-02-21T07:15:17;101774.66;;;8.24;100.00
67457;BME280;54319;52.038;4.640;2024-02-21T07:17:45;101766.16;;;8.28;100.00
67457;BME280;54319;52.038;4.640;2024-02-21T07:20:11;101754.47;;;8.19;100.00
67457;BME280;54319;52.038;4.640;2024-02-21T07:22:38;101758.34;;;8.24;100.00
67457;BME280;54319;52.038;4.640;2024-02-21T07:25:06;101753.44;;;8.28;100.00
67457;BME280;54319;52.038;4.640;2024-02-21T07:27:32;101740.53;;;8.22;100.00
67457;BME280;54319;52.038;4.640;2024-02-21T07:29:59;101739.34;;;8.16;100.00
67457;BME280;54319;52.038;4.640;2024-02-21T07:32:26;101728.47;;;8.16;100.00
67457;BME280;54319;52.038;4.640;2024-02-21T07:34:54;101729.34;;;8.17;100.00
67457;BME280;54319;52.038;4.640;2024-02-21T07:37:21;101725.56;;;8.26;100.00
67457;BME280;54319;52.038;4.640;2024-02-21T07:39:47;101728.47;;;8.16;100.00
67457;BME280;54319;52.038;4.640;2024-02-21T07:42:14;101721.19;;;8.17;100.00
67457;BME280;54319;52.038;4.640;2024-02-21T07:44:42;101725.72;;;8.24;100.00
67457;BME280;54319;52.038;4.640;2024-02-21T07:47:09;101729.66;;;8.22;100.00
67457;BME280;54319;52.038;4.640;2024-02-21T07:49:41;101723.00;;;8.24;100.00
67457;BME280;54319;52.038;4.640;2024-02-21T07:52:09;101723.88;;;8.25;100.00
67457;BME280;54319;52.038;4.640;2024-02-21T07:54:36;101705.16;;;8.30;100.00
67457;BME280;54319;52.038;4.640;2024-02-21T07:57:03;101698.88;;;8.30;100.00
67457;BME280;54319;52.038;4.640;2024-02-21T07:59:30;101700.91;;;8.36;100.00
67457;BME280;54319;52.038;4.640;2024-02-21T08:01:57;101690.88;;;8.36;100.00
67457;BME280;54319;52.038;4.640;2024-02-21T08:04:24;101699.53;;;8.40;100.00
67457;BME280;54319;52.038;4.640;2024-02-21T08:06:51;101702.41;;;8.38;100.00
67457;BME280;54319;52.038;4.640;2024-02-21T08:09:20;101701.94;;;8.35;100.00
67457;BME280;54319;52.038;4.640;2024-02-21T08:11:47;101689.00;;;8.37;100.00
67457;BME280;54319;52.038;4.640;2024-02-21T08:14:14;101694.09;;;8.32;100.00
67457;BME280;54319;52.038;4.640;2024-02-21T08:16:41;101682.19;;;8.33;100.00
67457;BME280;54319;52.038;4.640;2024-02-21T08:19:08;101682.19;;;8.33;100.00
67457;BME280;54319;52.038;4.640;2024-02-21T08:21:35;101671.31;;;8.33;100.00
67457;BME280;54319;52.038;4.640;2024-02-21T08:24:02;101677.47;;;8.35;100.00
67457;BME280;54319;52.038;4.640;2024-02-21T08:26:30;101670.00;;;8.29;100.00
67457;BME280;54319;52.038;4.640;2024-02-21T08:28:57;101666.09;;;8.31;100.00
67457;BME280;54319;52.038;4.640;2024-02-21T08:31:25;101668.94;;;8.38;100.00
67457;BME280;54319;52.038;4.640;2024-02-21T08:33:56;101659.25;;;8.35;100.00
67457;BME280;54319;52.038;4.640;2024-02-21T08:36:27;101649.41;;;8.34;100.00
67457;BME280;54319;52.038;4.640;2024-02-21T08:38:54;101652.28;;;8.41;100.00
67457;BME280;54319;52.038;4.640;2024-02-21T08:41:21;101650.03;;;8.45;100.00
67457;BME280;54319;52.038;4.640;2024-02-21T08:43:50;101656.13;;;8.47;100.00
67457;BME280;54319;52.038;4.640;2024-02-21T08:46:16;101649.19;;;8.52;100.00
67457;BME280;54319;52.038;4.640;2024-02-21T08:48:43;101624.78;;;8.36;100.00
67457;BME280;54319;52.038;4.640;2024-02-21T08:51:11;101639.81;;;8.47;100.00
67457;BME280;54319;52.038;4.640;2024-02-21T08:53:38;101626.13;;;8.40;100.00
67457;BME280;54319;52.038;4.640;2024-02-21T08:56:05;101639.31;;;8.51;100.00
67457;BME280;54319;52.038;4.640;2024-02-21T08:58:32;101629.34;;;8.67;100.00
67457;BME280;54319;52.038;4.640;2024-02-21T09:01:02;101613.97;;;8.59;100.00
67457;BME280;54319;52.038;4.640;2024-02-21T09:03:31;101619.56;;;8.58;100.00
67457;BME280;54319;52.038;4.640;2024-02-21T09:05:58;101609.25;;;8.53;100.00
67457;BME280;54319;52.038;4.640;2024-02-21T09:08:24;101606.63;;;8.60;100.00
67457;BME280;54319;52.038;4.640;2024-02-21T09:10:51;101616.13;;;8.64;100.00
67457;BME280;54319;52.038;4.640;2024-02-21T09:13:18;101615.81;;;8.59;100.00
67457;BME280;54319;52.038;4.640;2024-02-21T09:15:45;101591.91;;;8.54;100.00
67457;BME280;54319;52.038;4.640;2024-02-21T09:18:13;101585.06;;;8.58;100.00
67457;BME280;54319;52.038;4.640;2024-02-21T09:20:39;101593.03;;;8.60;100.00
67457;BME280;54319;52.038;4.640;2024-02-21T09:23:07;101576.56;;;8.61;100.00
67457;BME280;54319;52.038;4.640;2024-02-21T09:25:34;101566.63;;;8.68;100.00
67457;BME280;54319;52.038;4.640;2024-02-21T09:28:02;101535.19;;;8.66;100.00
67457;BME280;54319;52.038;4.640;2024-02-21T09:30:31;101553.69;;;8.71;100.00
67457;BME280;54319;52.038;4.640;2024-02-21T09:32:58;101548.75;;;8.74;100.00
67457;BME280;54319;52.038;4.640;2024-02-21T09:35:28;101498.50;;;8.62;100.00
67457;BME280;54319;52.038;4.640;2024-02-21T09:37:54;101524.84;;;8.85;100.00
67457;BME280;54319;52.038;4.640;2024-02-21T09:40:21;101503.56;;;8.65;100.00
67457;BME280;54319;52.038;4.640;2024-02-21T09:42:48;101512.16;;;8.77;100.00
67457;BME280;54319;52.038;4.640;2024-02-21T09:45:20;101503.38;;;8.90;100.00
67457;BME280;54319;52.038;4.640;2024-02-21T09:47:58;101498.66;;;8.83;100.00
67457;BME280;54319;52.038;4.640;2024-02-21T09:50:31;101488.56;;;8.92;100.00
67457;BME280;54319;52.038;4.640;2024-02-21T09:53:00;101492.31;;;8.91;100.00
67457;BME280;54319;52.038;4.640;2024-02-21T09:55:29;101479.66;;;8.98;100.00
67457;BME280;54319;52.038;4.640;2024-02-21T09:57:58;101479.06;;;9.03;100.00
67457;BME280;54319;52.038;4.640;2024-02-21T10:00:25;101479.72;;;9.05;100.00
67457;BME280;54319;52.038;4.640;2024-02-21T10:02:53;101477.22;;;9.19;100.00
67457;BME280;54319;52.038;4.640;2024-02-21T10:05:20;101469.44;;;9.16;100.00
67457;BME280;54319;52.038;4.640;2024-02-21T10:07:48;101464.25;;;9.06;100.00
67457;BME280;54319;52.038;4.640;2024-02-21T10:10:15;101461.91;;;9.18;100.00
67457;BME280;54319;52.038;4.640;2024-02-21T10:12:48;101443.41;;;8.98;100.00
67457;BME280;54319;52.038;4.640;2024-02-21T10:15:19;101439.38;;;9.09;100.00
67457;BME280;54319;52.038;4.640;2024-02-21T10:17:46;101424.63;;;9.18;100.00
67457;BME280;54319;52.038;4.640;2024-02-21T10:20:13;101413.56;;;9.20;100.00
67457;BME280;54319;52.038;4.640;2024-02-21T10:22:41;101394.66;;;9.33;100.00
67457;BME280;54319;52.038;4.640;2024-02-21T10:25:10;101391.28;;;9.31;100.00
67457;BME280;54319;52.038;4.640;2024-02-21T10:27:38;101376.91;;;9.37;100.00
67457;BME280;54319;52.038;4.640;2024-02-21T10:30:06;101387.63;;;9.39;100.00
67457;BME280;54319;52.038;4.640;2024-02-21T10:32:33;101407.63;;;9.31;100.00
67457;BME280;54319;52.038;4.640;2024-02-21T10:35:04;101412.59;;;9.27;100.00
67457;BME280;54319;52.038;4.640;2024-02-21T10:37:31;101404.91;;;9.31;100.00
67457;BME280;54319;52.038;4.640;2024-02-21T10:39:57;101418.25;;;9.26;100.00
67457;BME280;54319;52.038;4.640;2024-02-21T10:42:27;101416.69;;;9.17;100.00
67457;BME280;54319;52.038;4.640;2024-02-21T10:45:01;101421.63;;;9.13;100.00
67457;BME280;54319;52.038;4.640;2024-02-21T10:47:32;101407.09;;;9.06;100.00
67457;BME280;54319;52.038;4.640;2024-02-21T10:50:03;101422.13;;;9.17;100.00
67457;BME280;54319;52.038;4.640;2024-02-21T10:52:32;101404.75;;;9.18;100.00
67457;BME280;54319;52.038;4.640;2024-02-21T10:55:07;101412.91;;;9.18;100.00
67457;BME280;54319;52.038;4.640;2024-02-21T10:57:37;101403.72;;;9.19;100.00
67457;BME280;54319;52.038;4.640;2024-02-21T11:00:05;101394.56;;;9.26;100.00
67457;BME280;54319;52.038;4.640;2024-02-21T11:02:36;101389.50;;;9.23;100.00
67457;BME280;54319;52.038;4.640;2024-02-21T11:05:04;101393.38;;;9.29;100.00
67457;BME280;54319;52.038;4.640;2024-02-21T11:07:31;101359.13;;;9.20;100.00
67457;BME280;54319;52.038;4.640;2024-02-21T11:09:58;101387.44;;;9.25;100.00
67457;BME280;54319;52.038;4.640;2024-02-21T11:12:25;101377.31;;;9.34;100.00
67457;BME280;54319;52.038;4.640;2024-02-21T11:15:03;101330.56;;;9.31;100.00
67457;BME280;54319;52.038;4.640;2024-02-21T11:17:30;101339.41;;;9.54;100.00
67457;BME280;54319;52.038;4.640;2024-02-21T11:19:57;101336.38;;;9.64;100.00
67457;BME280;54319;52.038;4.640;2024-02-21T11:22:24;101324.28;;;9.74;100.00
67457;BME280;54319;52.038;4.640;2024-02-21T11:24:54;101334.72;;;9.92;100.00
67457;BME280;54319;52.038;4.640;2024-02-21T11:27:22;101321.19;;;9.77;100.00
67457;BME280;54319;52.038;4.640;2024-02-21T11:29:58;101314.75;;;9.84;100.00
67457;BME280;54319;52.038;4.640;2024-02-21T11:32:25;101299.75;;;9.95;100.00
67457;BME280;54319;52.038;4.640;2024-02-21T11:34:54;101287.28;;;10.08;100.00
67457;BME280;54319;52.038;4.640;2024-02-21T11:37:21;101287.72;;;10.11;100.00
67457;BME280;54319;52.038;4.640;2024-02-21T11:39:47;101282.72;;;10.15;100.00
67457;BME280;54319;52.038;4.640;2024-02-21T11:42:14;101273.59;;;10.01;100.00
67457;BME280;54319;52.038;4.640;2024-02-21T11:44:41;101270.34;;;10.19;100.00
67457;BME280;54319;52.038;4.640;2024-02-21T11:47:09;101266.75;;;10.12;100.00
67457;BME280;54319;52.038;4.640;2024-02-21T11:49:37;101259.28;;;10.21;100.00
67457;BME280;54319;52.038;4.640;2024-02-21T11:52:05;101268.13;;;10.30;100.00
67457;BME280;54319;52.038;4.640;2024-02-21T11:54:32;101259.72;;;10.24;100.00
67457;BME280;54319;52.038;4.640;2024-02-21T11:56:59;101246.44;;;10.14;100.00
67457;BME280;54319;52.038;4.640;2024-02-21T11:59:26;101261.78;;;10.22;100.00
67457;BME280;54319;52.038;4.640;2024-02-21T12:01:53;101242.06;;;10.20;100.00
67457;BME280;54319;52.038;4.640;2024-02-21T12:04:21;101179.41;;;9.92;100.00
67457;BME280;54319;52.038;4.640;2024-02-21T12:06:49;101220.66;;;10.17;100.00
67457;BME280;54319;52.038;4.640;2024-02-21T12:09:16;101211.88;;;10.22;100.00
67457;BME280;54319;52.038;4.640;2024-02-21T12:11:43;101208.91;;;10.17;100.00
67457;BME280;54319;52.038;4.640;2024-02-21T12:14:10;101211.41;;;10.18;100.00
67457;BME280;54319;52.038;4.640;2024-02-21T12:16:37;101189.38;;;10.13;100.00
67457;BME280;54319;52.038;4.640;2024-02-21T12:19:04;101168.53;;;9.98;100.00
67457;BME280;54319;52.038;4.640;2024-02-21T12:21:33;101173.34;;;9.96;100.00
67457;BME280;54319;52.038;4.640;2024-02-21T12:24:11;101126.91;;;9.76;100.00
67457;BME280;54319;52.038;4.640;2024-02-21T12:26:38;101149.19;;;9.87;100.00
67457;BME280;54319;52.038;4.640;2024-02-21T12:29:04;101129.81;;;9.75;100.00
67457;BME280;54319;52.038;4.640;2024-02-21T12:31:31;101125.81;;;9.70;100.00
67457;BME280;54319;52.038;4.640;2024-02-21T12:33:58;101114.72;;;9.72;100.00
67457;BME280;54319;52.038;4.640;2024-02-21T12:36:25;101099.38;;;9.64;100.00
67457;BME280;54319;52.038;4.640;2024-02-21T12:38:53;101108.19;;;9.66;100.00
67457;BME280;54319;52.038;4.640;2024-02-21T12:41:20;101099.22;;;9.73;100.00
67457;BME280;54319;52.038;4.640;2024-02-21T12:43:46;101088.25;;;9.59;100.00
67457;BME280;54319;52.038;4.640;2024-02-21T12:46:13;101093.47;;;9.61;100.00
67457;BME280;54319;52.038;4.640;2024-02-21T12:48:39;101066.34;;;9.46;100.00
67457;BME280;54319;52.038;4.640;2024-02-21T12:51:06;101092.16;;;9.50;100.00